createdAt,value
2023-06-13T00:01:38.355Z,4.80
2023-06-13T00:04:06.759Z,5.10
2023-06-13T00:06:35.828Z,5.40
2023-06-13T00:09:05.126Z,5.68
2023-06-13T00:11:33.563Z,5.00
2023-06-13T00:14:01.643Z,5.47
2023-06-13T00:16:31.161Z,5.60
2023-06-13T00:18:59.901Z,4.68
2023-06-13T00:21:28.293Z,4.97
2023-06-13T00:23:56.440Z,5.45
2023-06-13T00:26:24.564Z,5.03
2023-06-13T00:28:53.708Z,4.63
2023-06-13T00:31:22.111Z,5.15
2023-06-13T00:33:52.237Z,5.03
2023-06-13T00:36:21.384Z,4.57
2023-06-13T00:38:50.083Z,4.93
2023-06-13T00:41:18.259Z,4.63
2023-06-13T00:43:46.937Z,4.80
2023-06-13T00:46:15.689Z,5.15
2023-06-13T00:48:44.936Z,4.65
2023-06-13T00:51:15.866Z,4.88
2023-06-13T00:53:48.211Z,4.70
2023-06-13T00:56:16.302Z,4.38
2023-06-13T00:58:44.559Z,4.60
2023-06-13T01:01:32.763Z,4.28
2023-06-13T01:04:01.585Z,5.15
2023-06-13T01:06:34.769Z,3.80
2023-06-13T01:09:05.386Z,4.38
2023-06-13T01:11:38.669Z,4.40
2023-06-13T01:14:15.602Z,4.50
2023-06-13T01:16:48.888Z,4.18
2023-06-13T01:19:32.948Z,4.20
2023-06-13T01:22:04.379Z,4.38
2023-06-13T01:24:44.695Z,4.15
2023-06-13T01:27:17.311Z,4.30
2023-06-13T01:29:46.099Z,3.97
2023-06-13T01:32:14.866Z,4.32
2023-06-13T01:34:43.777Z,4.10
2023-06-13T01:37:11.941Z,3.92
2023-06-13T01:39:40.103Z,4.07
2023-06-13T01:42:08.964Z,3.80
2023-06-13T01:44:39.208Z,4.28
2023-06-13T01:47:18.350Z,3.92
2023-06-13T01:49:55.654Z,3.95
2023-06-13T01:52:31.042Z,4.65
2023-06-13T01:55:06.446Z,4.35
2023-06-13T01:57:38.923Z,4.30
2023-06-13T02:00:11.938Z,4.13
2023-06-13T02:02:42.525Z,4.72
2023-06-13T02:05:12.788Z,4.13
2023-06-13T02:07:41.778Z,4.45
2023-06-13T02:10:10.376Z,4.00
2023-06-13T02:12:38.542Z,4.50
2023-06-13T02:15:09.478Z,4.05
2023-06-13T02:17:37.846Z,4.70
2023-06-13T02:20:07.908Z,4.30
2023-06-13T02:22:36.122Z,3.85
2023-06-13T02:25:05.263Z,4.30
2023-06-13T02:27:33.271Z,4.30
2023-06-13T02:30:04.919Z,4.50
2023-06-13T02:32:34.744Z,4.60
2023-06-13T02:35:02.769Z,4.82
2023-06-13T02:37:30.821Z,4.15
2023-06-13T02:39:58.896Z,4.18
2023-06-13T02:42:29.528Z,4.30
2023-06-13T02:44:57.718Z,4.60
2023-06-13T02:47:25.945Z,4.55
2023-06-13T02:49:55.484Z,4.43
2023-06-13T02:52:24.925Z,4.32
2023-06-13T02:54:53.305Z,4.60
2023-06-13T02:57:21.416Z,4.28
2023-06-13T02:59:49.613Z,4.80
2023-06-13T03:02:22.000Z,4.43
2023-06-13T03:04:50.236Z,4.00
2023-06-13T03:07:19.859Z,4.55
2023-06-13T03:09:48.033Z,4.10
2023-06-13T03:12:16.170Z,5.20
2023-06-13T03:14:44.473Z,4.60
2023-06-13T03:17:12.889Z,4.28
2023-06-13T03:19:41.131Z,4.32
2023-06-13T03:22:14.806Z,4.57
2023-06-13T03:24:45.806Z,4.47
2023-06-13T03:27:14.242Z,3.97
2023-06-13T03:29:43.062Z,5.10
2023-06-13T03:32:11.624Z,4.30
2023-06-13T03:34:40.586Z,4.53
2023-06-13T03:37:10.261Z,5.10
2023-06-13T03:39:38.784Z,4.47
2023-06-13T03:42:09.462Z,4.97
2023-06-13T03:44:37.558Z,4.53
2023-06-13T03:47:06.393Z,4.32
2023-06-13T03:49:34.593Z,4.75
2023-06-13T03:52:03.791Z,4.63
2023-06-13T03:54:31.890Z,4.65
2023-06-13T03:57:01.557Z,4.25
2023-06-13T03:59:31.576Z,4.50
2023-06-13T04:01:59.587Z,4.53
2023-06-13T04:04:28.140Z,4.20
2023-06-13T04:06:56.708Z,4.85
2023-06-13T04:09:25.184Z,4.38
2023-06-13T04:11:53.203Z,4.40
2023-06-13T04:14:21.285Z,4.90
2023-06-13T04:16:51.276Z,4.43
2023-06-13T04:19:19.671Z,4.57
2023-06-13T04:21:48.157Z,4.50
2023-06-13T04:24:16.845Z,4.72
2023-06-13T04:26:46.331Z,4.80
2023-06-13T04:29:17.118Z,4.65
2023-06-13T04:32:08.361Z,4.57
2023-06-13T04:34:40.746Z,5.07
2023-06-13T04:37:08.876Z,4.45
2023-06-13T04:39:38.137Z,4.80
2023-06-13T04:42:06.636Z,4.78
2023-06-13T04:44:36.844Z,4.55
2023-06-13T04:47:08.378Z,4.82
2023-06-13T04:49:37.442Z,4.68
2023-06-13T04:52:06.511Z,4.72
2023-06-13T04:54:34.624Z,4.63
2023-06-13T04:57:02.732Z,4.55
2023-06-13T04:59:31.368Z,5.25
2023-06-13T05:02:00.807Z,5.10
2023-06-13T05:04:30.927Z,5.15
2023-06-13T05:07:00.527Z,4.60
2023-06-13T05:09:28.679Z,5.03
2023-06-13T05:11:56.760Z,4.90
2023-06-13T05:14:24.816Z,4.90
2023-06-13T05:16:56.525Z,5.10
2023-06-13T05:19:25.611Z,4.72
2023-06-13T05:21:54.934Z,5.03
2023-06-13T05:24:23.528Z,5.00
2023-06-13T05:26:52.671Z,5.03
2023-06-13T05:29:20.759Z,5.28
2023-06-13T05:31:48.851Z,5.25
2023-06-13T05:34:17.120Z,5.00
2023-06-13T05:36:45.185Z,5.00
2023-06-13T05:39:14.955Z,5.40
2023-06-13T05:41:43.033Z,4.93
2023-06-13T05:44:11.025Z,5.35
2023-06-13T05:46:39.127Z,4.88
2023-06-13T05:49:07.238Z,5.05
2023-06-13T05:51:35.291Z,5.05
2023-06-13T05:54:03.546Z,5.03
2023-06-13T05:56:34.832Z,4.93
2023-06-13T05:59:02.888Z,5.50
2023-06-13T06:01:31.461Z,5.50
2023-06-13T06:03:59.566Z,5.40
2023-06-13T06:06:27.812Z,5.40
2023-06-13T06:08:55.962Z,5.25
2023-06-13T06:11:24.303Z,5.30
2023-06-13T06:13:53.708Z,5.28
2023-06-13T06:16:21.726Z,5.25
2023-06-13T06:18:50.145Z,5.20
2023-06-13T06:21:18.459Z,5.13
2023-06-13T06:23:46.502Z,5.28
2023-06-13T06:26:14.618Z,5.22
2023-06-13T06:28:42.809Z,5.97
2023-06-13T06:31:15.190Z,6.45
2023-06-13T06:33:43.171Z,5.40
2023-06-13T06:36:11.672Z,5.70
2023-06-13T06:38:41.307Z,5.35
2023-06-13T06:41:09.467Z,5.30
2023-06-13T06:43:37.803Z,5.25
2023-06-13T06:46:07.519Z,5.45
2023-06-13T06:48:39.195Z,5.57
2023-06-13T06:51:08.270Z,5.32
2023-06-13T06:53:36.302Z,5.20
2023-06-13T06:56:04.469Z,5.10
2023-06-13T06:58:32.489Z,5.18
2023-06-13T07:01:01.372Z,5.40
2023-06-13T07:03:29.612Z,5.32
2023-06-13T07:05:59.030Z,5.30
2023-06-13T07:08:27.195Z,4.95
2023-06-13T07:10:55.285Z,4.45
2023-06-13T07:13:23.322Z,5.32
2023-06-13T07:15:51.584Z,5.28
2023-06-13T07:18:19.617Z,4.82
2023-06-13T07:20:47.726Z,5.05
2023-06-13T07:23:17.097Z,4.55
2023-06-13T07:25:45.143Z,5.00
2023-06-13T07:28:13.295Z,4.97
2023-06-13T07:30:41.402Z,4.60
2023-06-13T07:33:10.035Z,4.70
2023-06-13T07:35:38.575Z,4.38
2023-06-13T07:38:06.759Z,4.20
2023-06-13T07:40:36.172Z,4.75
2023-06-13T07:43:04.276Z,4.65
2023-06-13T07:45:32.296Z,4.90
2023-06-13T07:48:00.635Z,4.18
2023-06-13T07:50:29.364Z,4.20
2023-06-13T07:52:57.639Z,4.43
2023-06-13T07:55:25.880Z,4.25
2023-06-13T07:58:00.384Z,4.78
2023-06-13T08:00:29.372Z,4.10
2023-06-13T08:02:57.832Z,4.00
2023-06-13T08:05:27.420Z,4.32
2023-06-13T08:07:56.924Z,3.83
2023-06-13T08:10:28.904Z,4.30
2023-06-13T08:13:00.797Z,3.90
2023-06-13T08:15:28.957Z,4.28
2023-06-13T08:17:58.829Z,4.20
2023-06-13T08:20:27.360Z,4.45
2023-06-13T08:22:56.406Z,4.60
2023-06-13T08:25:24.532Z,4.90
2023-06-13T08:27:53.395Z,4.60
2023-06-13T08:30:24.494Z,4.28
2023-06-13T08:32:54.075Z,4.63
2023-06-13T08:35:22.657Z,4.60
2023-06-13T08:37:50.738Z,4.43
2023-06-13T08:40:20.613Z,4.45
2023-06-13T08:42:49.518Z,4.57
2023-06-13T08:45:18.672Z,4.35
2023-06-13T08:47:49.688Z,4.07
2023-06-13T08:50:26.004Z,4.18
2023-06-13T08:52:56.823Z,4.30
2023-06-13T08:57:58.145Z,4.28
2023-06-13T09:00:26.850Z,4.38
2023-06-13T09:02:57.210Z,4.30
2023-06-13T09:05:26.407Z,4.38
2023-06-13T09:08:05.167Z,4.75
2023-06-13T09:10:44.857Z,4.72
2023-06-13T09:13:13.977Z,4.90
2023-06-13T09:15:44.326Z,4.70
2023-06-13T09:18:14.194Z,4.60
2023-06-13T09:20:42.433Z,5.00
2023-06-13T09:23:13.508Z,4.90
2023-06-13T09:25:42.180Z,4.65
2023-06-13T09:28:41.677Z,4.53
2023-06-13T09:31:11.217Z,5.40
2023-06-13T09:33:41.126Z,4.82
2023-06-13T09:36:11.041Z,4.65
2023-06-13T09:38:41.614Z,4.85
2023-06-13T09:41:10.984Z,4.45
2023-06-13T09:43:40.209Z,4.40
2023-06-13T09:46:11.302Z,4.55
2023-06-13T09:48:45.161Z,5.10
2023-06-13T09:51:13.469Z,4.65
2023-06-13T09:53:41.927Z,5.45
2023-06-13T09:56:11.256Z,4.20
2023-06-13T09:58:40.380Z,5.03
2023-06-13T10:01:13.654Z,4.43
2023-06-13T10:03:45.053Z,4.72
2023-06-13T10:06:13.801Z,4.63
2023-06-13T10:08:41.975Z,4.18
2023-06-13T10:11:14.534Z,5.43
2023-06-13T10:13:48.488Z,4.85
2023-06-13T10:16:18.165Z,4.80
2023-06-13T10:18:49.764Z,4.75
2023-06-13T10:21:18.332Z,4.65
2023-06-13T10:23:49.721Z,4.60
2023-06-13T10:26:26.022Z,4.53
2023-06-13T10:29:22.180Z,4.10
2023-06-13T10:32:03.805Z,4.28
2023-06-13T10:35:05.525Z,5.05
2023-06-13T10:38:01.464Z,5.50
2023-06-13T10:41:03.519Z,5.57
2023-06-13T10:43:38.722Z,5.20
2023-06-13T10:46:08.976Z,4.68
2023-06-13T10:48:38.529Z,4.75
2023-06-13T10:51:10.473Z,4.57
2023-06-13T10:53:38.815Z,4.82
2023-06-13T10:56:30.525Z,4.50
2023-06-13T10:59:04.644Z,4.35
2023-06-13T11:01:33.744Z,4.80
2023-06-13T11:04:15.957Z,4.78
2023-06-13T11:06:46.891Z,4.47
2023-06-13T11:09:20.271Z,4.38
2023-06-13T11:11:53.500Z,4.55
2023-06-13T11:14:27.192Z,4.38
2023-06-13T11:16:55.760Z,4.70
2023-06-13T11:19:25.259Z,4.28
2023-06-13T11:22:12.691Z,4.85
2023-06-13T11:24:41.397Z,4.60
2023-06-13T11:27:12.153Z,4.57
2023-06-13T11:29:40.717Z,4.68
2023-06-13T11:32:11.467Z,4.43
2023-06-13T11:34:43.649Z,4.55
2023-06-13T11:37:26.777Z,4.20
2023-06-13T11:40:17.463Z,4.40
2023-06-13T11:42:45.045Z,4.70
2023-06-13T11:45:13.225Z,5.20
2023-06-13T11:47:41.426Z,4.78
2023-06-13T11:50:10.092Z,4.60
2023-06-13T11:52:39.486Z,4.45
2023-06-13T11:55:18.934Z,4.40
2023-06-13T11:57:47.579Z,4.25
2023-06-13T12:00:17.190Z,4.18
2023-06-13T12:02:47.417Z,4.30
2023-06-13T12:05:15.903Z,4.38
2023-06-13T12:07:46.922Z,4.07
2023-06-13T12:10:15.275Z,4.20
2023-06-13T12:12:43.600Z,4.57
2023-06-13T12:15:15.739Z,4.10
2023-06-13T12:17:58.626Z,4.32
2023-06-13T12:20:26.930Z,3.78
2023-06-13T12:23:00.791Z,4.25
2023-06-13T12:25:31.992Z,3.90
2023-06-13T12:28:02.851Z,4.40
2023-06-13T12:30:40.330Z,4.00
2023-06-13T12:33:08.759Z,4.45
2023-06-13T12:35:36.960Z,3.95
2023-06-13T12:38:06.383Z,4.53
2023-06-13T12:40:35.649Z,3.88
2023-06-13T12:43:04.984Z,3.92
2023-06-13T12:45:33.980Z,4.40
2023-06-13T12:48:02.558Z,3.97
2023-06-13T12:50:31.994Z,4.38
2023-06-13T12:53:08.310Z,4.47
2023-06-13T12:55:37.796Z,4.25
2023-06-13T12:58:30.127Z,4.53
2023-06-13T13:00:58.580Z,4.10
2023-06-13T13:03:26.894Z,4.70
2023-06-13T13:05:55.478Z,4.47
2023-06-13T13:08:25.027Z,4.50
2023-06-13T13:10:53.931Z,4.13
2023-06-13T13:13:22.287Z,4.00
2023-06-13T13:15:50.937Z,4.10
2023-06-13T13:18:19.084Z,4.07
2023-06-13T13:20:47.223Z,4.10
2023-06-13T13:23:16.162Z,4.18
2023-06-13T13:25:45.613Z,4.60
2023-06-13T13:28:13.758Z,4.10
2023-06-13T13:30:56.300Z,4.72
2023-06-13T13:33:29.358Z,4.55
2023-06-13T13:35:57.444Z,4.38
2023-06-13T13:38:25.448Z,3.58
2023-06-13T13:40:55.086Z,4.85
2023-06-13T13:43:23.140Z,4.50
2023-06-13T13:45:51.212Z,4.07
2023-06-13T13:48:19.456Z,4.10
2023-06-13T13:50:47.880Z,4.55
2023-06-13T13:53:16.487Z,4.18
2023-06-13T13:55:44.490Z,4.70
2023-06-13T13:58:14.082Z,4.10
2023-06-13T14:00:42.088Z,4.22
2023-06-13T14:03:10.558Z,4.15
2023-06-13T14:05:38.796Z,4.43
2023-06-13T14:08:07.950Z,4.40
2023-06-13T14:10:36.066Z,4.15
2023-06-13T14:13:06.070Z,4.18
2023-06-13T14:15:35.989Z,4.30
2023-06-13T14:18:04.210Z,4.05
2023-06-13T14:20:32.305Z,4.38
2023-06-13T14:23:00.982Z,4.03
2023-06-13T14:25:28.986Z,4.22
2023-06-13T14:27:57.134Z,4.35
2023-06-13T14:30:25.528Z,4.07
2023-06-13T14:32:55.238Z,4.82
2023-06-13T14:35:23.888Z,4.88
2023-06-13T14:37:52.089Z,4.38
2023-06-13T14:40:20.249Z,4.15
2023-06-13T14:42:49.045Z,4.43
2023-06-13T14:45:17.615Z,4.30
2023-06-13T14:47:45.960Z,4.20
2023-06-13T14:50:15.903Z,4.05
2023-06-13T14:52:44.167Z,4.18
2023-06-13T14:55:12.966Z,4.07
2023-06-13T14:57:44.005Z,3.95
2023-06-13T15:00:13.872Z,4.32
2023-06-13T15:02:42.521Z,4.32
2023-06-13T15:05:10.563Z,3.97
2023-06-13T15:07:40.135Z,4.00
2023-06-13T15:10:08.981Z,4.13
2023-06-13T15:12:36.977Z,3.90
2023-06-13T15:15:05.664Z,4.22
2023-06-13T15:17:33.775Z,4.45
2023-06-13T15:20:01.866Z,4.13
2023-06-13T15:22:29.985Z,4.68
2023-06-13T15:24:59.370Z,4.90
2023-06-13T15:27:27.409Z,4.40
2023-06-13T15:29:55.460Z,4.38
2023-06-13T15:32:24.486Z,4.53
2023-06-13T15:34:52.867Z,4.75
2023-06-13T15:37:21.352Z,4.78
2023-06-13T15:39:49.352Z,4.43
2023-06-13T15:42:19.133Z,4.80
2023-06-13T15:44:47.158Z,4.68
2023-06-13T15:47:15.271Z,6.75
2023-06-13T15:49:43.389Z,4.45
2023-06-13T15:52:11.467Z,4.53
2023-06-13T15:54:39.541Z,4.50
2023-06-13T15:57:08.130Z,4.78
2023-06-13T15:59:37.755Z,4.97
2023-06-13T16:02:06.129Z,5.22
2023-06-13T16:04:34.178Z,4.47
2023-06-13T16:07:02.192Z,4.70
2023-06-13T16:09:30.483Z,4.47
2023-06-13T16:11:58.632Z,4.68
2023-06-13T16:14:26.857Z,4.50
2023-06-13T16:16:56.312Z,4.32
2023-06-13T16:19:25.263Z,4.72
2023-06-13T16:21:53.317Z,4.70
2023-06-13T16:24:21.525Z,4.50
2023-06-13T16:26:49.693Z,4.88
2023-06-13T16:29:18.873Z,3.88
2023-06-13T16:31:49.259Z,3.90
2023-06-13T16:34:18.722Z,4.30
2023-06-13T16:36:47.222Z,4.28
2023-06-13T16:39:15.388Z,4.10
2023-06-13T16:41:43.628Z,4.78
2023-06-13T16:44:11.629Z,4.20
2023-06-13T16:46:39.662Z,4.20
2023-06-13T16:49:07.775Z,4.15
2023-06-13T16:51:37.130Z,4.00
2023-06-13T16:54:05.280Z,3.97
2023-06-13T16:56:34.008Z,3.72
2023-06-13T16:59:02.014Z,4.15
2023-06-13T17:01:30.098Z,3.70
2023-06-13T17:03:58.368Z,3.88
2023-06-13T17:06:26.522Z,4.15
2023-06-13T17:08:55.863Z,3.53
2023-06-13T17:11:23.946Z,3.47
2023-06-13T17:13:52.492Z,3.80
2023-06-13T17:16:20.792Z,3.55
2023-06-13T17:18:48.965Z,3.63
2023-06-13T17:21:17.790Z,3.88
2023-06-13T17:23:45.908Z,3.67
2023-06-13T17:26:15.407Z,3.50
2023-06-13T17:28:44.636Z,3.90
2023-06-13T17:31:12.783Z,4.03
2023-06-13T17:33:50.500Z,3.33
2023-06-13T17:36:20.147Z,3.35
2023-06-13T17:38:48.247Z,3.22
2023-06-13T17:41:17.707Z,3.20
2023-06-13T17:43:45.797Z,3.00
2023-06-13T17:46:14.656Z,3.40
2023-06-13T17:48:43.577Z,3.30
2023-06-13T17:51:11.701Z,3.45
2023-06-13T17:53:39.950Z,3.40
2023-06-13T17:56:08.002Z,3.25
2023-06-13T17:58:37.968Z,2.90
2023-06-13T18:01:07.539Z,2.83
2023-06-13T18:03:37.180Z,3.00
2023-06-13T18:06:05.620Z,3.20
2023-06-13T18:08:34.267Z,3.00
2023-06-13T18:11:02.358Z,3.25
2023-06-13T18:13:30.527Z,3.13
2023-06-13T18:16:00.176Z,2.90
2023-06-13T18:18:28.356Z,2.72
2023-06-13T18:20:56.420Z,3.10
2023-06-13T18:23:25.224Z,3.08
2023-06-13T18:25:53.539Z,3.10
2023-06-13T18:28:23.961Z,3.38
2023-06-13T18:30:52.238Z,2.90
2023-06-13T18:33:21.760Z,2.90
2023-06-13T18:35:51.309Z,3.10
2023-06-13T18:38:19.538Z,3.20
2023-06-13T18:40:47.667Z,3.00
2023-06-13T18:43:15.944Z,2.80
2023-06-13T18:45:44.218Z,2.95
2023-06-13T18:48:12.922Z,2.92
2023-06-13T18:50:42.725Z,2.95
2023-06-13T18:53:11.203Z,3.10
2023-06-13T18:55:40.500Z,2.83
2023-06-13T18:58:09.277Z,2.92
2023-06-13T19:00:38.093Z,2.58
2023-06-13T19:03:08.473Z,2.92
2023-06-13T19:05:36.981Z,3.33
2023-06-13T19:08:07.336Z,2.60
2023-06-13T19:10:36.986Z,2.75
2023-06-13T19:13:05.271Z,3.35
2023-06-13T19:15:34.676Z,3.97
2023-06-13T19:18:23.261Z,3.20
2023-06-13T19:20:51.378Z,3.03
2023-06-13T19:23:21.259Z,2.95
2023-06-13T19:25:50.615Z,3.13
2023-06-13T19:28:20.331Z,2.83
2023-06-13T19:30:49.218Z,2.90
2023-06-13T19:33:18.709Z,2.75
2023-06-13T19:35:49.406Z,3.35
2023-06-13T19:38:21.020Z,3.15
2023-06-13T19:40:49.425Z,2.78
2023-06-13T19:43:17.583Z,2.75
2023-06-13T19:45:46.293Z,2.80
2023-06-13T19:48:14.747Z,3.05
2023-06-13T19:50:43.100Z,2.28
2023-06-13T19:53:11.397Z,2.67
2023-06-13T19:55:41.281Z,2.45
2023-06-13T19:58:09.998Z,3.00
2023-06-13T20:00:38.354Z,2.78
2023-06-13T20:03:06.924Z,2.65
2023-06-13T20:05:38.298Z,2.83
2023-06-13T20:08:07.265Z,2.92
2023-06-13T20:10:36.120Z,2.70
2023-06-13T20:13:05.778Z,2.92
2023-06-13T20:15:34.294Z,2.83
2023-06-13T20:18:04.734Z,2.83
2023-06-13T20:20:33.030Z,2.35
2023-06-13T20:23:01.181Z,2.50
2023-06-13T20:25:29.340Z,2.72
2023-06-13T20:27:57.641Z,2.55
2023-06-13T20:30:27.106Z,2.90
2023-06-13T20:32:56.117Z,2.67
2023-06-13T20:35:24.935Z,2.65
2023-06-13T20:37:53.340Z,2.75
2023-06-13T20:40:22.143Z,2.70
2023-06-13T20:42:50.363Z,2.80
2023-06-13T20:45:19.130Z,3.00
2023-06-13T20:47:49.356Z,2.47
2023-06-13T20:50:19.065Z,2.88
2023-06-13T20:52:47.478Z,2.58
2023-06-13T20:55:16.543Z,2.80
2023-06-13T20:57:45.369Z,2.55
2023-06-13T21:00:23.283Z,3.03
2023-06-13T21:02:54.684Z,2.80
2023-06-13T21:05:23.797Z,2.88
2023-06-13T21:07:53.167Z,2.60
2023-06-13T21:10:22.989Z,2.70
2023-06-13T21:12:51.849Z,2.70
2023-06-13T21:15:21.412Z,2.65
2023-06-13T21:17:51.770Z,2.83
2023-06-13T21:20:25.161Z,2.60
2023-06-13T21:22:53.648Z,2.28
2023-06-13T21:25:24.505Z,3.00
2023-06-13T21:27:53.235Z,2.80
2023-06-13T21:30:21.637Z,2.70
2023-06-13T21:32:50.053Z,2.70
2023-06-13T21:35:20.032Z,3.50
2023-06-13T21:37:49.710Z,2.70
2023-06-13T21:40:18.555Z,2.97
2023-06-13T21:42:48.484Z,2.70
2023-06-13T21:45:36.785Z,2.63
2023-06-13T21:48:05.096Z,2.65
2023-06-13T21:50:33.356Z,2.78
2023-06-13T21:53:03.278Z,2.80
2023-06-13T21:55:53.064Z,2.53
2023-06-13T21:58:22.398Z,2.88
2023-06-13T22:00:52.881Z,2.60
2023-06-13T22:03:21.501Z,2.92
2023-06-13T22:05:50.135Z,2.65
2023-06-13T22:08:21.345Z,2.55
2023-06-13T22:10:49.430Z,2.63
2023-06-13T22:13:17.841Z,2.95
2023-06-13T22:15:47.771Z,2.92
2023-06-13T22:18:16.768Z,2.88
2023-06-13T22:20:45.455Z,2.58
2023-06-13T22:23:13.645Z,3.13
2023-06-13T22:25:44.616Z,2.70
2023-06-13T22:28:16.463Z,3.05
2023-06-13T22:30:46.253Z,2.75
2023-06-13T22:33:15.310Z,2.72
2023-06-13T22:35:43.598Z,2.90
2023-06-13T22:38:12.311Z,2.67
2023-06-13T22:40:40.660Z,2.55
2023-06-13T22:43:10.263Z,2.60
2023-06-13T22:45:40.073Z,2.80
2023-06-13T22:48:09.541Z,3.13
2023-06-13T22:50:42.103Z,3.33
2023-06-13T22:53:10.294Z,2.90
2023-06-13T22:55:38.704Z,2.55
2023-06-13T22:58:06.833Z,2.70
2023-06-13T23:00:39.044Z,2.80
2023-06-13T23:03:07.242Z,2.70
2023-06-13T23:05:35.442Z,2.72
2023-06-13T23:08:03.724Z,3.00
2023-06-13T23:10:32.120Z,3.00
2023-06-13T23:13:01.644Z,2.90
2023-06-13T23:15:30.751Z,2.40
2023-06-13T23:18:00.231Z,2.63
2023-06-13T23:20:29.400Z,2.85
2023-06-13T23:23:00.230Z,2.80
2023-06-13T23:25:50.447Z,2.90
2023-06-13T23:28:21.206Z,3.35
2023-06-13T23:30:49.542Z,2.67
2023-06-13T23:33:19.195Z,2.80
2023-06-13T23:35:47.393Z,2.60
2023-06-13T23:38:16.777Z,2.78
2023-06-13T23:40:45.193Z,2.90
2023-06-13T23:43:13.384Z,2.63
2023-06-13T23:45:43.002Z,2.78
2023-06-13T23:48:11.809Z,2.70
2023-06-13T23:50:41.267Z,2.80
2023-06-13T23:53:09.846Z,2.90
2023-06-13T23:55:41.880Z,2.78
2023-06-13T23:58:11.702Z,2.55
